createdAt,value
2019-03-24T00:01:02.701Z,40.48
2019-03-24T00:03:31.486Z,40.08
2019-03-24T00:06:00.339Z,38.23
2019-03-24T00:08:29.070Z,37.07
2019-03-24T00:10:57.811Z,36.23
2019-03-24T00:13:26.644Z,38.33
2019-03-24T00:15:55.384Z,33.28
2019-03-24T00:18:24.213Z,36.28
2019-03-24T00:20:52.955Z,35.08
2019-03-24T00:23:21.720Z,35.17
2019-03-24T00:25:50.461Z,35.83
2019-03-24T00:28:19.225Z,34.75
2019-03-24T00:30:48.013Z,33.58
2019-03-24T00:33:16.777Z,35.80
2019-03-24T00:35:45.614Z,35.60
2019-03-24T00:38:14.405Z,33.18
2019-03-24T00:40:43.145Z,35.55
2019-03-24T00:43:11.909Z,31.30
2019-03-24T00:45:40.673Z,36.83
2019-03-24T00:48:09.434Z,32.53
2019-03-24T00:50:38.180Z,32.28
2019-03-24T00:53:07.037Z,32.17
2019-03-24T00:55:35.969Z,33.50
2019-03-24T00:58:04.907Z,36.68
2019-03-24T01:00:47.625Z,34.90
2019-03-24T01:03:16.764Z,32.70
2019-03-24T01:05:46.065Z,34.63
2019-03-24T01:08:15.414Z,32.17
2019-03-24T01:10:44.279Z,34.53
2019-03-24T01:13:13.826Z,34.93
2019-03-24T01:15:47.782Z,32.20
2019-03-24T01:18:13.452Z,31.12
2019-03-24T01:20:42.212Z,32.83
2019-03-24T01:23:10.949Z,30.97
2019-03-24T01:25:39.709Z,33.42
2019-03-24T01:28:08.501Z,31.62
2019-03-24T01:30:37.290Z,31.53
2019-03-24T01:33:06.089Z,33.78
2019-03-24T01:35:34.956Z,36.83
2019-03-24T01:38:03.702Z,32.63
2019-03-24T01:40:32.538Z,33.08
2019-03-24T01:43:01.273Z,31.37
2019-03-24T01:45:32.394Z,31.20
2019-03-24T01:48:01.197Z,31.15
2019-03-24T01:50:30.046Z,31.25
2019-03-24T01:52:58.797Z,31.45
2019-03-24T01:55:27.557Z,31.70
2019-03-24T01:57:56.301Z,32.35
2019-03-24T02:00:25.233Z,29.27
2019-03-24T02:02:54.085Z,31.75
2019-03-24T02:05:22.861Z,31.75
2019-03-24T02:07:51.602Z,30.37
2019-03-24T02:10:20.489Z,31.52
2019-03-24T02:12:49.240Z,30.48
2019-03-24T02:15:17.986Z,28.75
2019-03-24T02:17:46.726Z,29.55
2019-03-24T02:20:15.601Z,28.90
2019-03-24T02:22:44.334Z,29.80
2019-03-24T02:25:13.321Z,28.55
2019-03-24T02:27:42.070Z,27.60
2019-03-24T02:30:11.370Z,27.62
2019-03-24T02:32:40.148Z,27.77
2019-03-24T02:35:09.384Z,27.77
2019-03-24T02:37:38.222Z,26.87
2019-03-24T02:40:08.545Z,30.37
2019-03-24T02:42:37.296Z,29.45
2019-03-24T02:45:06.895Z,29.97
2019-03-24T02:47:35.662Z,29.37
2019-03-24T02:50:06.365Z,30.52
2019-03-24T02:52:35.336Z,27.48
2019-03-24T02:55:06.035Z,27.02
2019-03-24T02:57:34.889Z,28.20
2019-03-24T03:00:08.648Z,31.07
2019-03-24T03:02:37.421Z,30.23
2019-03-24T03:05:08.872Z,30.65
2019-03-24T03:07:37.601Z,28.07
2019-03-24T03:10:08.787Z,30.90
2019-03-24T03:12:37.590Z,25.48
2019-03-24T03:15:08.510Z,28.47
2019-03-24T03:17:37.346Z,31.52
2019-03-24T03:20:08.082Z,25.15
2019-03-24T03:22:36.883Z,25.48
2019-03-24T03:25:07.818Z,29.05
2019-03-24T03:27:36.626Z,29.20
2019-03-24T03:30:09.520Z,30.00
2019-03-24T03:32:38.883Z,30.82
2019-03-24T03:35:09.561Z,28.95
2019-03-24T03:37:38.404Z,28.03
2019-03-24T03:40:08.945Z,26.60
2019-03-24T03:42:39.430Z,28.85
2019-03-24T03:45:10.345Z,29.90
2019-03-24T03:47:39.682Z,28.73
2019-03-24T03:50:09.050Z,26.73
2019-03-24T03:52:37.787Z,29.50
2019-03-24T03:55:06.863Z,29.87
2019-03-24T03:57:35.585Z,31.33
2019-03-24T04:00:06.642Z,30.17
2019-03-24T04:02:35.473Z,30.02
2019-03-24T04:05:06.126Z,30.37
2019-03-24T04:07:34.894Z,31.45
2019-03-24T04:10:03.920Z,32.42
2019-03-24T04:12:32.754Z,31.10
2019-03-24T04:15:01.567Z,30.70
2019-03-24T04:17:30.334Z,28.90
2019-03-24T04:19:59.069Z,30.25
2019-03-24T04:22:27.994Z,28.80
2019-03-24T04:24:56.771Z,28.23
2019-03-24T04:27:25.538Z,32.95
2019-03-24T04:29:57.305Z,29.37
2019-03-24T04:32:26.070Z,28.55
2019-03-24T04:34:55.000Z,28.50
2019-03-24T04:37:23.768Z,28.02
2019-03-24T04:39:52.501Z,26.10
2019-03-24T04:42:21.268Z,28.70
2019-03-24T04:44:50.006Z,29.27
2019-03-24T04:47:18.766Z,30.40
2019-03-24T04:49:47.515Z,31.07
2019-03-24T04:52:16.281Z,30.65
2019-03-24T04:54:45.022Z,31.75
2019-03-24T04:57:13.786Z,30.27
2019-03-24T04:59:42.666Z,30.52
2019-03-24T05:02:11.401Z,29.92
2019-03-24T05:04:40.250Z,28.27
2019-03-24T05:07:10.350Z,25.55
2019-03-24T05:09:39.466Z,28.25
2019-03-24T05:12:09.340Z,31.00
2019-03-24T05:14:38.077Z,31.15
2019-03-24T05:17:06.813Z,30.08
2019-03-24T05:19:35.649Z,31.42
2019-03-24T05:22:04.393Z,30.55
2019-03-24T05:24:33.231Z,27.20
2019-03-24T05:27:02.037Z,29.50
2019-03-24T05:29:30.801Z,30.70
2019-03-24T05:31:59.541Z,31.90
2019-03-24T05:34:28.313Z,26.68
2019-03-24T05:36:57.187Z,28.12
2019-03-24T05:39:25.882Z,28.83
2019-03-24T05:41:54.648Z,31.15
2019-03-24T05:44:23.581Z,28.80
2019-03-24T05:46:52.341Z,27.50
2019-03-24T05:49:21.083Z,27.93
2019-03-24T05:51:49.875Z,28.00
2019-03-24T05:54:18.604Z,27.48
2019-03-24T05:56:47.376Z,31.02
2019-03-24T05:59:16.116Z,32.60
2019-03-24T06:01:44.882Z,32.65
2019-03-24T06:04:13.621Z,30.68
2019-03-24T06:06:42.384Z,31.55
2019-03-24T06:09:11.153Z,29.60
2019-03-24T06:11:39.920Z,33.45
2019-03-24T06:14:08.733Z,29.45
2019-03-24T06:16:38.030Z,30.75
2019-03-24T06:19:06.901Z,28.35
2019-03-24T06:21:35.641Z,32.17
2019-03-24T06:24:04.509Z,29.67
2019-03-24T06:26:33.241Z,28.50
2019-03-24T06:29:02.118Z,30.60
2019-03-24T06:31:30.857Z,29.18
2019-03-24T06:33:59.617Z,28.07
2019-03-24T06:36:28.358Z,30.17
2019-03-24T06:38:57.125Z,28.20
2019-03-24T06:41:25.926Z,29.55
2019-03-24T06:43:54.730Z,27.97
2019-03-24T06:46:23.473Z,27.35
2019-03-24T06:48:52.304Z,28.10
2019-03-24T06:51:21.037Z,28.75
2019-03-24T06:53:49.804Z,29.13
2019-03-24T06:56:18.568Z,28.10
2019-03-24T06:58:47.305Z,25.97
2019-03-24T07:01:16.077Z,26.50
2019-03-24T07:03:44.814Z,26.27
2019-03-24T07:06:13.586Z,26.82
2019-03-24T07:08:43.679Z,29.70
2019-03-24T07:11:13.836Z,29.17
2019-03-24T07:13:42.853Z,27.60
2019-03-24T07:16:11.621Z,28.70
2019-03-24T07:18:40.361Z,29.18
2019-03-24T07:21:10.797Z,27.50
2019-03-24T07:23:40.529Z,28.10
2019-03-24T07:26:09.322Z,28.23
2019-03-24T07:28:38.074Z,30.92
2019-03-24T07:31:07.018Z,28.15
2019-03-24T07:33:37.708Z,28.55
2019-03-24T07:36:06.194Z,27.45
2019-03-24T07:38:34.972Z,28.25
2019-03-24T07:41:03.781Z,29.15
2019-03-24T07:43:32.541Z,30.52
2019-03-24T07:46:01.427Z,29.77
2019-03-24T07:48:30.278Z,30.88
2019-03-24T07:50:59.045Z,32.42
2019-03-24T07:53:27.809Z,29.02
2019-03-24T07:55:56.541Z,30.63
2019-03-24T07:58:25.319Z,31.15
2019-03-24T08:00:54.051Z,32.50
2019-03-24T08:03:22.905Z,32.53
2019-03-24T08:05:51.762Z,30.82
2019-03-24T08:08:20.585Z,33.55
2019-03-24T08:10:49.384Z,31.70
2019-03-24T08:13:18.161Z,32.88
2019-03-24T08:15:46.905Z,33.42
2019-03-24T08:18:15.729Z,34.48
2019-03-24T08:20:44.590Z,36.63
2019-03-24T08:23:13.442Z,31.30
2019-03-24T08:25:42.282Z,32.13
2019-03-24T08:28:11.052Z,34.80
2019-03-24T08:30:39.823Z,33.92
2019-03-24T08:33:08.561Z,36.55
2019-03-24T08:35:37.329Z,38.15
2019-03-24T08:38:06.104Z,37.55
2019-03-24T08:40:35.029Z,37.23
2019-03-24T08:43:04.069Z,36.13
2019-03-24T08:45:32.841Z,37.63
2019-03-24T08:48:01.592Z,35.75
2019-03-24T08:50:30.390Z,36.30
2019-03-24T08:52:59.129Z,37.42
2019-03-24T08:55:27.898Z,37.25
2019-03-24T08:57:56.642Z,37.00
2019-03-24T09:00:30.474Z,38.98
2019-03-24T09:02:55.830Z,37.63
2019-03-24T09:05:24.665Z,36.42
2019-03-24T09:07:53.506Z,36.20
2019-03-24T09:10:22.296Z,36.25
2019-03-24T09:12:51.109Z,35.55
2019-03-24T09:15:19.854Z,38.30
2019-03-24T09:17:48.627Z,36.00
2019-03-24T09:20:17.362Z,33.23
2019-03-24T09:22:46.166Z,36.45
2019-03-24T09:25:14.969Z,35.98
2019-03-24T09:27:43.770Z,35.38
2019-03-24T09:30:18.233Z,34.48
2019-03-24T09:32:47.017Z,35.35
2019-03-24T09:35:15.809Z,41.85
2019-03-24T09:37:44.645Z,40.25
2019-03-24T09:40:18.571Z,41.05
2019-03-24T09:42:46.811Z,42.93
2019-03-24T09:45:15.545Z,40.23
2019-03-24T09:47:44.345Z,43.05
2019-03-24T09:50:13.320Z,44.13
2019-03-24T09:52:42.054Z,42.87
2019-03-24T09:55:10.821Z,43.93
2019-03-24T09:57:39.557Z,44.37
2019-03-24T10:00:08.397Z,43.63
2019-03-24T10:02:37.218Z,45.67
2019-03-24T10:05:06.391Z,43.35
2019-03-24T10:07:35.170Z,45.40
2019-03-24T10:10:08.009Z,46.15
2019-03-24T10:12:36.749Z,48.17
2019-03-24T10:15:06.379Z,45.40
2019-03-24T10:17:35.141Z,48.42
2019-03-24T10:20:04.109Z,47.70
2019-03-24T10:22:32.854Z,50.50
2019-03-24T10:25:01.738Z,47.90
2019-03-24T10:27:30.572Z,47.40
2019-03-24T10:29:59.368Z,50.25
2019-03-24T10:32:28.209Z,50.33
2019-03-24T10:34:56.955Z,48.92
2019-03-24T10:37:25.741Z,50.88
2019-03-24T10:39:54.477Z,48.50
2019-03-24T10:42:23.361Z,52.20
2019-03-24T10:44:52.205Z,49.55
2019-03-24T10:47:21.048Z,53.35
2019-03-24T10:49:49.811Z,50.70
2019-03-24T10:52:18.641Z,54.48
2019-03-24T10:54:47.457Z,52.73
2019-03-24T10:57:16.297Z,54.42
2019-03-24T10:59:45.105Z,54.23
2019-03-24T11:02:14.821Z,53.78
2019-03-24T11:04:43.565Z,53.28
2019-03-24T11:07:12.357Z,57.65
2019-03-24T11:09:41.133Z,53.85
2019-03-24T11:12:09.866Z,55.20
2019-03-24T11:14:38.673Z,54.63
2019-03-24T11:17:07.421Z,53.80
2019-03-24T11:19:36.252Z,54.60
2019-03-24T11:22:05.060Z,53.17
2019-03-24T11:24:33.841Z,56.63
2019-03-24T11:27:02.629Z,53.02
2019-03-24T11:29:31.449Z,55.75
2019-03-24T11:32:00.180Z,52.85
2019-03-24T11:34:29.036Z,56.08
2019-03-24T11:36:57.886Z,54.73
2019-03-24T11:39:26.661Z,53.70
2019-03-24T11:41:55.452Z,51.75
2019-03-24T11:44:24.277Z,54.10
2019-03-24T11:46:53.013Z,55.92
2019-03-24T11:49:21.789Z,54.57
2019-03-24T11:51:50.526Z,49.13
2019-03-24T11:54:19.296Z,53.83
2019-03-24T11:56:48.114Z,56.40
2019-03-24T11:59:16.933Z,56.50
2019-03-24T12:01:45.697Z,53.40
2019-03-24T12:04:14.469Z,54.15
2019-03-24T12:06:43.214Z,52.20
2019-03-24T12:09:12.054Z,52.43
2019-03-24T12:11:40.789Z,53.68
2019-03-24T12:14:09.570Z,55.43
2019-03-24T12:16:38.312Z,53.30
2019-03-24T12:19:07.201Z,53.68
2019-03-24T12:21:36.058Z,49.50
2019-03-24T12:24:04.897Z,49.08
2019-03-24T12:26:33.705Z,50.00
2019-03-24T12:29:02.557Z,48.98
2019-03-24T12:31:31.296Z,49.42
2019-03-24T12:34:00.040Z,50.88
2019-03-24T12:36:28.920Z,50.08
2019-03-24T12:38:57.668Z,53.20
2019-03-24T12:41:27.627Z,51.95
2019-03-24T12:43:56.382Z,52.27
2019-03-24T12:46:25.196Z,53.68
2019-03-24T12:48:53.938Z,53.42
2019-03-24T12:51:22.701Z,53.57
2019-03-24T12:53:51.461Z,50.88
2019-03-24T12:56:20.300Z,50.73
2019-03-24T12:58:49.036Z,48.00
2019-03-24T13:01:17.885Z,52.25
2019-03-24T13:03:46.630Z,47.50
2019-03-24T13:06:15.471Z,47.15
2019-03-24T13:08:44.253Z,45.92
2019-03-24T13:11:13.093Z,47.08
2019-03-24T13:13:41.934Z,49.15
2019-03-24T13:16:10.773Z,49.73
2019-03-24T13:18:39.585Z,48.17
2019-03-24T13:21:08.471Z,47.58
2019-03-24T13:23:37.299Z,50.35
2019-03-24T13:26:06.068Z,47.17
2019-03-24T13:28:34.806Z,48.20
2019-03-24T13:31:03.573Z,49.75
2019-03-24T13:33:32.321Z,47.15
2019-03-24T13:36:08.673Z,47.80
2019-03-24T13:38:37.420Z,46.55
2019-03-24T13:41:06.218Z,46.05
2019-03-24T13:43:35.005Z,45.35
2019-03-24T13:46:03.814Z,43.68
2019-03-24T13:48:32.561Z,44.90
2019-03-24T13:51:01.328Z,45.43
2019-03-24T13:53:30.145Z,45.23
2019-03-24T13:55:59.004Z,44.08
2019-03-24T13:58:27.753Z,42.70
2019-03-24T14:00:56.528Z,41.42
2019-03-24T14:03:25.369Z,41.97
2019-03-24T14:05:56.660Z,43.03
2019-03-24T14:08:25.509Z,43.20
2019-03-24T14:10:54.345Z,43.28
2019-03-24T14:13:23.170Z,46.13
2019-03-24T14:15:51.939Z,43.20
2019-03-24T14:18:20.937Z,45.60
2019-03-24T14:20:49.646Z,44.45
2019-03-24T14:23:18.422Z,42.88
2019-03-24T14:25:47.261Z,44.30
2019-03-24T14:28:16.080Z,43.70
2019-03-24T14:30:49.044Z,43.25
2019-03-24T14:33:18.045Z,44.05
2019-03-24T14:35:46.955Z,45.85
2019-03-24T14:38:15.853Z,46.48
2019-03-24T14:40:44.742Z,43.52
2019-03-24T14:43:13.521Z,46.73
2019-03-24T14:45:42.258Z,44.42
2019-03-24T14:48:11.022Z,45.83
2019-03-24T14:50:39.846Z,42.03
2019-03-24T14:53:08.613Z,45.43
2019-03-24T14:55:37.352Z,42.13
2019-03-24T14:58:06.354Z,41.08
2019-03-24T15:00:43.027Z,40.83
2019-03-24T15:03:12.500Z,40.38
2019-03-24T15:05:44.553Z,42.97
2019-03-24T15:08:13.790Z,42.60
2019-03-24T15:10:44.215Z,41.53
2019-03-24T15:13:13.022Z,41.80
2019-03-24T15:15:43.437Z,40.03
2019-03-24T15:18:12.244Z,39.25
2019-03-24T15:20:44.065Z,40.12
2019-03-24T15:23:12.882Z,38.67
2019-03-24T15:25:43.066Z,38.02
2019-03-24T15:31:01.142Z,36.95
2019-03-24T15:33:30.446Z,41.40
2019-03-24T15:36:02.914Z,38.75
2019-03-24T15:38:33.970Z,39.10
2019-03-24T15:41:09.848Z,39.63
2019-03-24T15:43:41.009Z,39.35
2019-03-24T15:46:09.049Z,39.85
2019-03-24T15:48:37.793Z,38.10
2019-03-24T15:51:16.449Z,37.15
2019-03-24T15:53:37.071Z,35.27
2019-03-24T15:56:07.012Z,36.68
2019-03-24T15:58:35.778Z,39.00
2019-03-24T16:01:04.668Z,38.02
2019-03-24T16:03:33.441Z,37.17
2019-03-24T16:06:02.181Z,35.58
2019-03-24T16:08:30.949Z,38.05
2019-03-24T16:10:59.684Z,36.48
2019-03-24T16:13:28.472Z,33.20
2019-03-24T16:15:57.266Z,36.00
2019-03-24T16:18:26.104Z,37.83
2019-03-24T16:20:54.836Z,37.48
2019-03-24T16:23:23.609Z,37.90
2019-03-24T16:25:52.346Z,39.67
2019-03-24T16:28:21.116Z,36.55
2019-03-24T16:30:49.912Z,39.18
2019-03-24T16:33:18.694Z,37.93
2019-03-24T16:35:47.443Z,42.73
2019-03-24T16:38:16.221Z,41.02
2019-03-24T16:40:44.964Z,39.27
2019-03-24T16:43:13.745Z,39.63
2019-03-24T16:45:42.581Z,39.23
2019-03-24T16:48:11.374Z,43.83
2019-03-24T16:50:40.104Z,40.53
2019-03-24T16:53:08.837Z,39.03
2019-03-24T16:55:37.609Z,42.25
2019-03-24T16:58:06.350Z,42.65
2019-03-24T17:00:35.134Z,43.87
2019-03-24T17:03:04.078Z,42.83
2019-03-24T17:05:32.845Z,45.25
2019-03-24T17:08:01.653Z,44.85
2019-03-24T17:10:30.423Z,43.83
2019-03-24T17:12:59.159Z,42.80
2019-03-24T17:15:27.934Z,44.13
2019-03-24T17:17:56.673Z,43.85
2019-03-24T17:20:25.447Z,47.53
2019-03-24T17:22:54.215Z,44.77
2019-03-24T17:25:22.949Z,46.88
2019-03-24T17:27:51.718Z,44.20
2019-03-24T17:30:20.462Z,41.98
2019-03-24T17:32:49.224Z,45.55
2019-03-24T17:35:17.965Z,44.75
2019-03-24T17:37:46.749Z,44.77
2019-03-24T17:40:15.789Z,45.85
2019-03-24T17:42:44.566Z,47.88
2019-03-24T17:45:13.697Z,47.43
2019-03-24T17:47:44.134Z,51.80
2019-03-24T17:50:13.458Z,55.15
2019-03-24T17:52:42.325Z,61.63
2019-03-24T17:55:11.646Z,57.50
2019-03-24T17:57:41.145Z,61.98
2019-03-24T18:00:13.057Z,54.30
2019-03-24T18:02:41.830Z,55.70
2019-03-24T18:05:11.009Z,51.68
2019-03-24T18:07:39.934Z,55.25
2019-03-24T18:10:10.485Z,56.45
2019-03-24T18:12:39.229Z,53.48
2019-03-24T18:15:09.717Z,54.10
2019-03-24T18:17:38.545Z,51.88
2019-03-24T18:20:08.183Z,55.28
2019-03-24T18:22:37.022Z,55.05
2019-03-24T18:25:07.482Z,55.05
2019-03-24T18:27:36.301Z,54.30
2019-03-24T18:30:08.214Z,58.50
2019-03-24T18:32:37.125Z,55.15
2019-03-24T18:35:08.336Z,58.13
2019-03-24T18:37:37.181Z,55.73
2019-03-24T18:40:08.334Z,56.80
2019-03-24T18:42:37.370Z,59.48
2019-03-24T18:45:11.262Z,61.68
2019-03-24T18:47:40.599Z,57.43
2019-03-24T18:50:10.720Z,57.95
2019-03-24T18:52:39.482Z,56.10
2019-03-24T18:55:09.232Z,57.23
2019-03-24T18:57:38.015Z,57.33
2019-03-24T19:00:09.346Z,57.35
2019-03-24T19:02:38.291Z,59.33
2019-03-24T19:07:32.277Z,56.08
2019-03-24T19:10:01.140Z,53.95
2019-03-24T19:12:30.059Z,55.07
2019-03-24T19:14:58.951Z,55.12
2019-03-24T19:17:27.827Z,53.50
2019-03-24T19:19:56.928Z,56.28
2019-03-24T19:22:33.448Z,59.37
2019-03-24T19:24:56.306Z,53.75
2019-03-24T19:27:25.364Z,53.67
2019-03-24T19:29:54.198Z,56.53
2019-03-24T19:32:22.966Z,51.58
2019-03-24T19:34:51.877Z,53.05
2019-03-24T19:37:20.879Z,52.13
2019-03-24T19:39:49.904Z,52.13
2019-03-24T19:42:18.787Z,57.08
2019-03-24T19:44:47.820Z,53.95
2019-03-24T19:47:16.899Z,55.38
2019-03-24T19:49:45.679Z,55.00
2019-03-24T19:52:14.522Z,57.35
2019-03-24T19:54:43.645Z,59.73
2019-03-24T19:57:13.916Z,55.67
2019-03-24T19:59:44.169Z,62.40
2019-03-24T20:02:16.727Z,60.08
2019-03-24T20:04:45.221Z,58.28
2019-03-24T20:07:14.136Z,60.67
2019-03-24T20:09:42.957Z,59.00
2019-03-24T20:12:15.876Z,57.75
2019-03-24T20:14:44.366Z,59.13
2019-03-24T20:17:14.850Z,61.18
2019-03-24T20:19:43.740Z,57.23
2019-03-24T20:22:13.902Z,61.75
2019-03-24T20:24:42.889Z,62.08
2019-03-24T20:27:11.725Z,60.85
2019-03-24T20:29:40.886Z,62.55
2019-03-24T20:32:09.888Z,60.00
2019-03-24T20:34:38.858Z,60.78
2019-03-24T20:37:07.819Z,62.80
2019-03-24T20:39:38.336Z,61.23
2019-03-24T20:42:09.997Z,63.23
2019-03-24T20:44:38.805Z,63.83
2019-03-24T20:47:07.597Z,67.00
2019-03-24T20:49:38.308Z,63.23
2019-03-24T20:52:06.765Z,66.30
2019-03-24T20:54:35.610Z,67.03
2019-03-24T20:57:04.505Z,64.53
2019-03-24T20:59:33.278Z,66.72
2019-03-24T21:02:03.267Z,65.62
2019-03-24T21:04:32.062Z,64.03
2019-03-24T21:07:00.870Z,64.35
2019-03-24T21:09:29.647Z,63.70
2019-03-24T21:11:58.386Z,64.33
2019-03-24T21:14:27.154Z,66.07
2019-03-24T21:16:55.906Z,68.05
2019-03-24T21:19:24.687Z,69.17
2019-03-24T21:21:53.489Z,66.85
2019-03-24T21:24:22.264Z,69.20
2019-03-24T21:26:51.049Z,62.67
2019-03-24T21:29:19.969Z,63.90
2019-03-24T21:31:48.721Z,66.20
2019-03-24T21:34:17.529Z,68.37
2019-03-24T21:36:46.375Z,69.37
2019-03-24T21:39:15.186Z,65.30
2019-03-24T21:41:43.962Z,66.83
2019-03-24T21:44:12.801Z,67.87
2019-03-24T21:46:41.570Z,67.65
2019-03-24T21:49:10.314Z,68.40
2019-03-24T21:51:39.081Z,69.15
2019-03-24T21:54:07.883Z,69.58
2019-03-24T21:56:36.662Z,67.53
2019-03-24T21:59:05.492Z,73.85
2019-03-24T22:01:34.329Z,65.55
2019-03-24T22:04:03.145Z,69.10
2019-03-24T22:06:31.907Z,71.28
2019-03-24T22:09:00.646Z,68.93
2019-03-24T22:11:30.713Z,67.30
2019-03-24T22:13:59.441Z,70.97
2019-03-24T22:16:28.222Z,69.60
2019-03-24T22:18:56.985Z,70.65
2019-03-24T22:21:25.726Z,71.73
2019-03-24T22:23:54.488Z,74.05
2019-03-24T22:26:23.338Z,74.32
2019-03-24T22:28:52.054Z,74.05
2019-03-24T22:31:20.808Z,71.75
2019-03-24T22:33:49.553Z,72.15
2019-03-24T22:36:18.292Z,68.53
2019-03-24T22:38:47.054Z,76.80
2019-03-24T22:41:15.801Z,74.53
2019-03-24T22:43:44.566Z,71.33
2019-03-24T22:46:13.381Z,72.08
2019-03-24T22:48:42.158Z,71.22
2019-03-24T22:51:10.893Z,71.80
2019-03-24T22:53:39.666Z,73.47
2019-03-24T22:56:08.413Z,75.20
2019-03-24T22:58:38.652Z,76.10
2019-03-24T23:01:07.468Z,69.72
2019-03-24T23:03:36.209Z,71.92
2019-03-24T23:06:05.356Z,74.42
2019-03-24T23:08:34.094Z,71.80
2019-03-24T23:11:02.870Z,76.12
2019-03-24T23:13:31.621Z,71.77
2019-03-24T23:16:00.381Z,73.75
2019-03-24T23:18:29.212Z,75.87
2019-03-24T23:20:59.808Z,73.47
2019-03-24T23:23:28.496Z,75.75
2019-03-24T23:25:57.270Z,73.72
2019-03-24T23:28:26.068Z,70.55
2019-03-24T23:30:54.874Z,74.47
2019-03-24T23:33:23.609Z,72.30
2019-03-24T23:35:52.377Z,75.67
2019-03-24T23:38:21.326Z,75.80
2019-03-24T23:40:50.126Z,75.78
2019-03-24T23:43:18.867Z,75.90
2019-03-24T23:45:47.637Z,74.55
2019-03-24T23:48:16.488Z,69.20
2019-03-24T23:50:45.260Z,71.12
2019-03-24T23:53:13.993Z,72.00
2019-03-24T23:55:42.765Z,74.58
2019-03-24T23:58:11.674Z,72.65
